createdAt,value
2023-07-05T00:04:49.918Z,17.5
2023-07-05T00:10:43.529Z,17.3
2023-07-05T00:15:50.329Z,17.4
2023-07-05T00:21:32.765Z,16.9
2023-07-05T00:27:13.781Z,17
2023-07-05T00:32:56.625Z,16
2023-07-05T00:38:12.676Z,16.2
2023-07-05T00:43:52.300Z,16.8
2023-07-05T00:49:40.871Z,17.1
2023-07-05T00:55:11.062Z,17
2023-07-05T01:00:54.522Z,17.2
2023-07-05T01:06:21.067Z,17.2
2023-07-05T01:11:36.710Z,17.1
2023-07-05T01:17:23.970Z,17
2023-07-05T01:22:59.465Z,16.7
2023-07-05T01:28:24.133Z,16.8
2023-07-05T01:34:05.232Z,16.9
2023-07-05T01:39:35.530Z,17.2
2023-07-05T01:45:15.919Z,17
2023-07-05T01:50:48.756Z,16.7
2023-07-05T01:56:10.900Z,16.3
2023-07-05T02:01:52.930Z,16.6
2023-07-05T02:07:35.496Z,16.7
2023-07-05T02:13:13.410Z,16.9
2023-07-05T02:24:05.182Z,16.4
2023-07-05T02:29:40.530Z,16.3
2023-07-05T02:35:28.180Z,16.3
2023-07-05T02:40:55.870Z,16.4
2023-07-05T02:46:38.670Z,16.4
2023-07-05T02:52:14.660Z,16.5
2023-07-05T02:57:37.819Z,16.5
2023-07-05T03:14:08.589Z,16.5
2023-07-05T03:19:46.569Z,16.4
2023-07-05T03:25:28.633Z,16.3
2023-07-05T03:31:06.016Z,16.1
2023-07-05T03:36:50.688Z,16.2
2023-07-05T03:41:59.928Z,16.3
2023-07-05T03:47:51.580Z,16.4
2023-07-05T03:59:03.843Z,16.5
2023-07-05T04:04:43.272Z,16.6
2023-07-05T04:10:11.638Z,16.7
2023-07-05T04:15:24.375Z,16.8
2023-07-05T04:20:59.829Z,16.9
2023-07-05T04:26:58.585Z,16.9
2023-07-05T04:32:29.957Z,16.8
2023-07-05T04:49:05.326Z,16.5
2023-07-05T04:54:43.398Z,16.5
2023-07-05T05:00:19.137Z,16.5
2023-07-05T05:05:38.716Z,16.6
2023-07-05T05:11:12.205Z,16.7
2023-07-05T05:17:02.042Z,17.4
2023-07-05T05:22:32.562Z,18.3
2023-07-05T05:39:06.537Z,19.6
2023-07-05T05:44:39.098Z,19.5
2023-07-05T05:50:19.687Z,18.9
2023-07-05T05:55:47.530Z,18.6
2023-07-05T06:01:21.270Z,18.5
2023-07-05T06:07:11.710Z,18.5
2023-07-05T06:12:32.316Z,18.5
2023-07-05T06:18:14.720Z,18.4
2023-07-05T06:24:01.636Z,18.4
2023-07-05T06:29:27.924Z,18.3
2023-07-05T06:34:51.088Z,17.5
2023-07-05T06:40:46.201Z,16.9
2023-07-05T06:46:24.621Z,16.7
2023-07-05T06:52:04.476Z,16.8
2023-07-05T06:57:30.584Z,17
2023-07-05T07:08:33.162Z,17.7
2023-07-05T07:14:00.047Z,18
2023-07-05T07:19:47.306Z,18.3
2023-07-05T07:25:30.896Z,18.4
2023-07-05T07:31:09.013Z,18.5
2023-07-05T07:36:42.038Z,18.5
2023-07-05T07:42:02.765Z,19.1
2023-07-05T07:47:48.486Z,19.1
2023-07-05T07:59:04.585Z,19.6
2023-07-05T08:04:16.192Z,20
2023-07-05T08:10:09.154Z,20.1
2023-07-05T08:15:44.363Z,19.5
2023-07-05T08:21:19.529Z,19.6
2023-07-05T08:26:46.249Z,19.6
2023-07-05T08:32:29.610Z,19.2
2023-07-05T08:49:03.394Z,17.6
2023-07-05T08:54:57.722Z,17.9
2023-07-05T09:00:26.329Z,18.4
2023-07-05T09:05:58.850Z,18.7
2023-07-05T09:11:49.420Z,18.7
2023-07-05T09:17:14.246Z,19.3
2023-07-05T09:22:44.026Z,19.4
2023-07-05T09:28:21.650Z,19.7
2023-07-05T09:33:52.837Z,19.6
2023-07-05T09:39:21.239Z,19.9
2023-07-05T09:45:11.593Z,20
2023-07-05T09:50:57.181Z,19.5
2023-07-05T09:56:22.517Z,18.8
2023-07-05T10:01:46.144Z,18.5
2023-07-05T10:07:21.946Z,18.3
2023-07-05T10:13:08.100Z,18.6
2023-07-05T10:18:29.696Z,18.9
2023-07-05T10:24:22.825Z,18.7
2023-07-05T10:30:08.390Z,19.3
2023-07-05T10:35:23.697Z,19.3
2023-07-05T10:41:02.668Z,19.1
2023-07-05T10:46:52.201Z,20.2
2023-07-05T10:52:27.618Z,20.3
2023-07-05T10:57:46.226Z,20.2
2023-07-05T11:09:11.736Z,19.9
2023-07-05T11:14:57.807Z,20
2023-07-05T11:20:28.378Z,20.2
2023-07-05T11:26:10.452Z,21.3
2023-07-05T11:31:44.929Z,21.1
2023-07-05T11:37:04.137Z,21.3
2023-07-05T11:42:37.071Z,21.9
2023-07-05T11:48:18.646Z,22.2
2023-07-05T11:54:13.300Z,22.4
2023-07-05T11:59:33.814Z,22.5
2023-07-05T12:05:10.574Z,22.4
2023-07-05T12:10:47.751Z,21.7
2023-07-05T12:16:35.786Z,22.8
2023-07-05T12:22:20.093Z,23
2023-07-05T12:27:52.329Z,22.2
2023-07-05T12:33:27.560Z,22.8
2023-07-05T12:39:01.901Z,23.1
2023-07-05T12:44:55.766Z,23
2023-07-05T12:50:13.136Z,22.3
2023-07-05T12:55:49.436Z,22.6
2023-07-05T13:01:39.627Z,22.7
2023-07-05T13:07:11.569Z,23.5
2023-07-05T13:18:24.548Z,23.2
2023-07-05T13:24:10.230Z,23.8
2023-07-05T13:29:47.752Z,23.2
2023-07-05T13:35:18.551Z,23.3
2023-07-05T13:41:04.447Z,24
2023-07-05T13:46:54.260Z,23.8
2023-07-05T13:52:27.842Z,24.1
2023-07-05T14:09:21.615Z,23.8
2023-07-05T14:14:56.604Z,24.7
2023-07-05T14:20:20.983Z,23.9
2023-07-05T14:26:17.334Z,23.5
2023-07-05T14:31:45.314Z,23.3
2023-07-05T14:37:32.078Z,23.2
2023-07-05T14:48:26.614Z,23.2
2023-07-05T14:54:24.845Z,23.2
2023-07-05T14:59:49.609Z,24
2023-07-05T15:05:21.092Z,24
2023-07-05T15:11:02.712Z,23.9
2023-07-05T15:16:38.763Z,23.4
2023-07-05T15:22:32.692Z,23.6
2023-07-05T15:28:08.972Z,23.4
2023-07-05T15:39:20.295Z,23.2
2023-07-05T15:44:53.264Z,23.1
2023-07-05T15:50:35.616Z,23.3
2023-07-05T15:56:23.442Z,22.7
2023-07-05T16:01:53.161Z,22.7
2023-07-05T16:07:36.547Z,23.2
2023-07-05T16:18:24.375Z,22.7
2023-07-05T16:24:02.767Z,22.8
2023-07-05T16:29:43.577Z,23.1
2023-07-05T16:35:25.859Z,23.5
2023-07-05T16:41:19.753Z,23.2
2023-07-05T16:46:33.968Z,22.5
2023-07-05T16:52:14.337Z,22.6
2023-07-05T16:58:00.366Z,22.8
2023-07-05T17:03:29.562Z,22.9
2023-07-05T17:08:56.426Z,22.9
2023-07-05T17:14:39.781Z,23.1
2023-07-05T17:20:28.350Z,23.2
2023-07-05T17:26:11.418Z,22.5
2023-07-05T17:31:43.378Z,23
2023-07-05T17:37:16.256Z,23
2023-07-05T17:42:55.126Z,22.3
2023-07-05T17:54:16.738Z,22.8
2023-07-05T17:59:45.360Z,22.7
2023-07-05T18:05:13.724Z,22.4
2023-07-05T18:10:54.049Z,22.2
2023-07-05T18:16:24.748Z,21.8
2023-07-05T18:22:16.126Z,21.3
2023-07-05T18:27:49.146Z,21
2023-07-05T18:33:08.036Z,20.8
2023-07-05T18:39:04.427Z,20.8
2023-07-05T18:44:39.329Z,20.3
2023-07-05T18:50:05.930Z,20.2
2023-07-05T18:55:44.575Z,19.7
2023-07-05T19:01:22.341Z,19
2023-07-05T19:06:59.030Z,18.5
2023-07-05T19:12:38.842Z,18.1
2023-07-05T19:18:02.827Z,17.7
2023-07-05T19:23:32.659Z,17.2
2023-07-05T19:29:11.428Z,17.4
2023-07-05T19:34:54.461Z,17.4
2023-07-05T19:40:08.183Z,17.1
2023-07-05T19:45:46.082Z,16.7
2023-07-05T19:51:24.288Z,18
2023-07-05T19:57:01.867Z,19
2023-07-05T20:02:35.445Z,18.8
2023-07-05T20:08:21.994Z,18.9
2023-07-05T20:13:38.318Z,18.1
2023-07-05T20:19:17.198Z,17.6
2023-07-05T20:24:57.733Z,17.9
2023-07-05T20:30:35.006Z,17.9
2023-07-05T20:36:08.302Z,18
2023-07-05T20:41:31.099Z,17.8
2023-07-05T20:47:24.780Z,17.8
2023-07-05T20:52:40.621Z,17.7
2023-07-05T21:03:57.343Z,17.9
2023-07-05T21:09:39.878Z,18
2023-07-05T21:15:09.907Z,17.7
2023-07-05T21:20:42.670Z,17.7
2023-07-05T21:26:10.177Z,17.2
2023-07-05T21:31:58.275Z,17
2023-07-05T21:37:41.032Z,17
2023-07-05T21:43:05.025Z,17.2
2023-07-05T21:54:19.386Z,17
2023-07-05T21:59:47.681Z,16.6
2023-07-05T22:05:35.974Z,16.8
2023-07-05T22:11:04.977Z,17.1
2023-07-05T22:16:19.459Z,17.5
2023-07-05T22:22:11.089Z,17.4
2023-07-05T22:27:29.135Z,16.8
2023-07-05T22:33:16.959Z,16.7
2023-07-05T22:38:46.128Z,17.2
2023-07-05T22:44:23.951Z,17.3
2023-07-05T22:50:10.402Z,17.5
2023-07-05T22:55:28.660Z,17.4
2023-07-05T23:00:58.330Z,17.5
2023-07-05T23:06:40.134Z,17.5
2023-07-05T23:12:06.954Z,17
2023-07-05T23:17:46.778Z,17.1
2023-07-05T23:23:21.182Z,17.3
2023-07-05T23:28:53.410Z,17.1
2023-07-05T23:34:20.439Z,17
2023-07-05T23:40:13.827Z,17.1
2023-07-05T23:45:32.513Z,17.2
2023-07-05T23:51:17.938Z,17.2
2023-07-05T23:56:48.914Z,17.1
